sensor_id;sensor_type;location;lat;lon;timestamp;pressure;altitude;pressure_sealevel;temperature;humidity
66945;BME280;53853;51.982;5.928;2022-07-03T00:01:05;101663.84;;;18.82;62.69
66945;BME280;53853;51.982;5.928;2022-07-03T00:03:35;101660.13;;;18.83;62.90
66945;BME280;53853;51.982;5.928;2022-07-03T00:06:08;101658.81;;;18.79;62.96
66945;BME280;53853;51.982;5.928;2022-07-03T00:08:38;101661.03;;;18.75;63.20
66945;BME280;53853;51.982;5.928;2022-07-03T00:11:09;101656.19;;;18.71;63.54
66945;BME280;53853;51.982;5.928;2022-07-03T00:13:40;101653.03;;;18.67;63.09
66945;BME280;53853;51.982;5.928;2022-07-03T00:16:09;101646.31;;;18.63;62.58
66945;BME280;53853;51.982;5.928;2022-07-03T00:18:39;101643.97;;;18.60;63.06
66945;BME280;53853;51.982;5.928;2022-07-03T00:21:19;101643.50;;;18.56;63.02
66945;BME280;53853;51.982;5.928;2022-07-03T00:23:55;101645.75;;;18.53;63.33
66945;BME280;53853;51.982;5.928;2022-07-03T00:26:25;101641.91;;;18.47;63.61
66945;BME280;53853;51.982;5.928;2022-07-03T00:28:57;101639.38;;;18.45;63.41
66945;BME280;53853;51.982;5.928;2022-07-03T00:31:29;101639.09;;;18.40;64.05
66945;BME280;53853;51.982;5.928;2022-07-03T00:34:01;101646.53;;;18.38;64.29
66945;BME280;53853;51.982;5.928;2022-07-03T00:36:38;101652.31;;;18.35;64.55
66945;BME280;53853;51.982;5.928;2022-07-03T00:39:08;101642.22;;;18.29;64.59
66945;BME280;53853;51.982;5.928;2022-07-03T00:41:38;101648.34;;;18.23;64.83
66945;BME280;53853;51.982;5.928;2022-07-03T00:44:07;101634.41;;;18.19;64.80
66945;BME280;53853;51.982;5.928;2022-07-03T00:46:38;101635.75;;;18.15;64.97
66945;BME280;53853;51.982;5.928;2022-07-03T00:49:10;101634.25;;;18.13;65.29
66945;BME280;53853;51.982;5.928;2022-07-03T00:51:43;101630.25;;;18.08;65.30
66945;BME280;53853;51.982;5.928;2022-07-03T00:54:21;101645.09;;;18.04;65.44
66945;BME280;53853;51.982;5.928;2022-07-03T00:56:54;101638.22;;;18.02;64.96
66945;BME280;53853;51.982;5.928;2022-07-03T00:59:24;101643.97;;;17.99;65.49
66945;BME280;53853;51.982;5.928;2022-07-03T01:02:02;101647.88;;;17.96;66.18
66945;BME280;53853;51.982;5.928;2022-07-03T01:04:50;101640.31;;;17.91;66.37
66945;BME280;53853;51.982;5.928;2022-07-03T01:07:33;101632.72;;;17.87;65.84
66945;BME280;53853;51.982;5.928;2022-07-03T01:10:12;101632.44;;;17.82;66.06
66945;BME280;53853;51.982;5.928;2022-07-03T01:12:56;101628.75;;;17.74;66.07
66945;BME280;53853;51.982;5.928;2022-07-03T01:15:40;101631.63;;;17.73;66.32
66945;BME280;53853;51.982;5.928;2022-07-03T01:18:23;101625.09;;;17.67;66.55
66945;BME280;53853;51.982;5.928;2022-07-03T01:20:59;101622.09;;;17.62;66.05
66945;BME280;53853;51.982;5.928;2022-07-03T01:26:31;101622.13;;;17.54;67.13
66945;BME280;53853;51.982;5.928;2022-07-03T01:29:08;101625.16;;;17.51;67.27
66945;BME280;53853;51.982;5.928;2022-07-03T01:31:43;101626.56;;;17.47;67.22
66945;BME280;53853;51.982;5.928;2022-07-03T01:34:19;101626.91;;;17.44;66.95
66945;BME280;53853;51.982;5.928;2022-07-03T01:36:51;101622.53;;;17.43;67.05
66945;BME280;53853;51.982;5.928;2022-07-03T01:39:26;101624.38;;;17.42;67.37
66945;BME280;53853;51.982;5.928;2022-07-03T01:42:00;101642.78;;;17.38;68.03
66945;BME280;53853;51.982;5.928;2022-07-03T01:44:31;101641.91;;;17.38;67.78
66945;BME280;53853;51.982;5.928;2022-07-03T01:47:02;101644.94;;;17.35;66.83
66945;BME280;53853;51.982;5.928;2022-07-03T01:49:32;101652.84;;;17.36;66.63
66945;BME280;53853;51.982;5.928;2022-07-03T01:52:02;101644.44;;;17.39;66.07
66945;BME280;53853;51.982;5.928;2022-07-03T01:54:34;101649.47;;;17.43;65.88
66945;BME280;53853;51.982;5.928;2022-07-03T01:57:08;101647.28;;;17.46;65.24
66945;BME280;53853;51.982;5.928;2022-07-03T01:59:38;101647.94;;;17.48;65.05
66945;BME280;53853;51.982;5.928;2022-07-03T02:02:25;101646.72;;;17.51;64.97
66945;BME280;53853;51.982;5.928;2022-07-03T02:05:07;101647.59;;;17.51;64.81
66945;BME280;53853;51.982;5.928;2022-07-03T02:07:40;101643.69;;;17.54;64.66
66945;BME280;53853;51.982;5.928;2022-07-03T02:10:15;101637.94;;;17.57;64.21
66945;BME280;53853;51.982;5.928;2022-07-03T02:12:51;101630.72;;;17.58;64.28
66945;BME280;53853;51.982;5.928;2022-07-03T02:15:29;101628.03;;;17.58;64.24
66945;BME280;53853;51.982;5.928;2022-07-03T02:18:05;101620.75;;;17.58;64.27
66945;BME280;53853;51.982;5.928;2022-07-03T02:20:38;101620.59;;;17.60;64.49
66945;BME280;53853;51.982;5.928;2022-07-03T02:23:11;101618.91;;;17.59;64.46
66945;BME280;53853;51.982;5.928;2022-07-03T02:25:44;101622.47;;;17.59;64.77
66945;BME280;53853;51.982;5.928;2022-07-03T02:28:29;101628.50;;;17.61;64.97
66945;BME280;53853;51.982;5.928;2022-07-03T02:31:02;101633.25;;;17.59;64.93
66945;BME280;53853;51.982;5.928;2022-07-03T02:33:33;101643.84;;;17.61;65.00
66945;BME280;53853;51.982;5.928;2022-07-03T02:36:06;101634.91;;;17.60;65.07
66945;BME280;53853;51.982;5.928;2022-07-03T02:38:40;101631.72;;;17.56;64.95
66945;BME280;53853;51.982;5.928;2022-07-03T02:41:15;101629.19;;;17.55;64.81
66945;BME280;53853;51.982;5.928;2022-07-03T02:43:55;101623.81;;;17.55;64.97
66945;BME280;53853;51.982;5.928;2022-07-03T02:46:37;101624.81;;;17.54;64.93
66945;BME280;53853;51.982;5.928;2022-07-03T02:49:52;101629.19;;;17.55;65.18
66945;BME280;53853;51.982;5.928;2022-07-03T02:52:28;101624.34;;;17.50;65.07
66945;BME280;53853;51.982;5.928;2022-07-03T02:55:02;101623.34;;;17.51;65.21
66945;BME280;53853;51.982;5.928;2022-07-03T02:57:38;101619.78;;;17.51;65.34
66945;BME280;53853;51.982;5.928;2022-07-03T03:00:13;101618.31;;;17.48;65.17
66945;BME280;53853;51.982;5.928;2022-07-03T03:03:00;101625.72;;;17.46;65.69
66945;BME280;53853;51.982;5.928;2022-07-03T03:05:37;101632.13;;;17.45;65.62
66945;BME280;53853;51.982;5.928;2022-07-03T03:08:16;101634.81;;;17.45;65.35
66945;BME280;53853;51.982;5.928;2022-07-03T03:10:47;101638.50;;;17.44;65.33
66945;BME280;53853;51.982;5.928;2022-07-03T03:13:18;101638.69;;;17.43;65.48
66945;BME280;53853;51.982;5.928;2022-07-03T03:16:01;101642.41;;;17.42;65.73
66945;BME280;53853;51.982;5.928;2022-07-03T03:18:36;101630.97;;;17.39;65.70
66945;BME280;53853;51.982;5.928;2022-07-03T03:21:09;101632.16;;;17.37;65.56
66945;BME280;53853;51.982;5.928;2022-07-03T03:23:44;101632.16;;;17.37;65.60
66945;BME280;53853;51.982;5.928;2022-07-03T03:26:18;101635.03;;;17.35;65.59
66945;BME280;53853;51.982;5.928;2022-07-03T03:28:49;101640.41;;;17.35;64.84
66945;BME280;53853;51.982;5.928;2022-07-03T03:31:24;101638.72;;;17.34;65.20
66945;BME280;53853;51.982;5.928;2022-07-03T03:33:54;101638.06;;;17.32;65.07
66945;BME280;53853;51.982;5.928;2022-07-03T03:36:24;101639.91;;;17.32;65.14
66945;BME280;53853;51.982;5.928;2022-07-03T03:38:55;101641.13;;;17.29;64.85
66945;BME280;53853;51.982;5.928;2022-07-03T03:41:25;101648.00;;;17.32;64.82
66945;BME280;53853;51.982;5.928;2022-07-03T03:43:55;101646.16;;;17.32;64.85
66945;BME280;53853;51.982;5.928;2022-07-03T03:46:27;101647.00;;;17.33;65.00
66945;BME280;53853;51.982;5.928;2022-07-03T03:48:57;101648.69;;;17.34;65.22
66945;BME280;53853;51.982;5.928;2022-07-03T03:51:27;101643.94;;;17.36;65.20
66945;BME280;53853;51.982;5.928;2022-07-03T03:53:57;101642.78;;;17.38;65.09
66945;BME280;53853;51.982;5.928;2022-07-03T03:56:27;101646.47;;;17.37;65.13
66945;BME280;53853;51.982;5.928;2022-07-03T03:58:57;101644.09;;;17.43;65.17
66945;BME280;53853;51.982;5.928;2022-07-03T04:01:29;101636.69;;;17.45;65.37
66945;BME280;53853;51.982;5.928;2022-07-03T04:04:00;101639.84;;;17.48;65.11
66945;BME280;53853;51.982;5.928;2022-07-03T04:06:30;101636.63;;;17.53;65.25
66945;BME280;53853;51.982;5.928;2022-07-03T04:08:59;101639.97;;;17.55;65.10
66945;BME280;53853;51.982;5.928;2022-07-03T04:11:29;101638.81;;;17.58;65.02
66945;BME280;53853;51.982;5.928;2022-07-03T04:13:59;101637.59;;;17.60;64.73
66945;BME280;53853;51.982;5.928;2022-07-03T04:16:33;101642.47;;;17.65;64.65
66945;BME280;53853;51.982;5.928;2022-07-03T04:19:02;101642.94;;;17.68;64.71
66945;BME280;53853;51.982;5.928;2022-07-03T04:21:32;101628.44;;;17.69;64.88
66945;BME280;53853;51.982;5.928;2022-07-03T04:24:02;101635.34;;;17.72;64.82
66945;BME280;53853;51.982;5.928;2022-07-03T04:26:32;101637.00;;;17.73;65.09
66945;BME280;53853;51.982;5.928;2022-07-03T04:29:02;101627.44;;;17.70;65.58
66945;BME280;53853;51.982;5.928;2022-07-03T04:31:35;101635.72;;;17.69;66.01
66945;BME280;53853;51.982;5.928;2022-07-03T04:34:05;101633.38;;;17.66;66.00
66945;BME280;53853;51.982;5.928;2022-07-03T04:36:35;101640.78;;;17.64;66.07
66945;BME280;53853;51.982;5.928;2022-07-03T04:39:05;101654.28;;;17.64;65.76
66945;BME280;53853;51.982;5.928;2022-07-03T04:41:38;101651.06;;;17.60;65.88
66945;BME280;53853;51.982;5.928;2022-07-03T04:44:08;101650.41;;;17.58;66.13
66945;BME280;53853;51.982;5.928;2022-07-03T04:46:40;101650.75;;;17.55;66.59
66945;BME280;53853;51.982;5.928;2022-07-03T04:49:10;101652.81;;;17.53;66.68
66945;BME280;53853;51.982;5.928;2022-07-03T04:51:40;101651.94;;;17.52;66.66
66945;BME280;53853;51.982;5.928;2022-07-03T04:54:10;101655.50;;;17.53;66.50
66945;BME280;53853;51.982;5.928;2022-07-03T04:56:39;101661.72;;;17.53;66.28
66945;BME280;53853;51.982;5.928;2022-07-03T04:59:09;101659.69;;;17.55;65.96
66945;BME280;53853;51.982;5.928;2022-07-03T05:01:42;101654.97;;;17.58;66.98
66945;BME280;53853;51.982;5.928;2022-07-03T05:04:12;101661.84;;;17.60;66.76
66945;BME280;53853;51.982;5.928;2022-07-03T05:06:42;101667.56;;;17.65;66.78
66945;BME280;53853;51.982;5.928;2022-07-03T05:09:12;101672.91;;;17.73;66.02
66945;BME280;53853;51.982;5.928;2022-07-03T05:11:41;101666.47;;;17.83;65.54
66945;BME280;53853;51.982;5.928;2022-07-03T05:14:11;101661.53;;;17.95;65.32
66945;BME280;53853;51.982;5.928;2022-07-03T05:16:44;101667.53;;;18.05;65.42
66945;BME280;53853;51.982;5.928;2022-07-03T05:19:14;101661.38;;;18.19;65.61
66945;BME280;53853;51.982;5.928;2022-07-03T05:21:44;101666.81;;;18.34;64.89
66945;BME280;53853;51.982;5.928;2022-07-03T05:24:14;101675.97;;;18.48;63.40
66945;BME280;53853;51.982;5.928;2022-07-03T05:26:44;101672.38;;;18.56;64.06
66945;BME280;53853;51.982;5.928;2022-07-03T05:29:14;101675.81;;;18.64;63.49
66945;BME280;53853;51.982;5.928;2022-07-03T05:31:46;101681.31;;;18.71;63.49
66945;BME280;53853;51.982;5.928;2022-07-03T05:34:16;101677.44;;;18.74;63.34
66945;BME280;53853;51.982;5.928;2022-07-03T05:36:46;101681.28;;;18.79;63.57
66945;BME280;53853;51.982;5.928;2022-07-03T05:39:16;101683.72;;;18.89;62.36
66945;BME280;53853;51.982;5.928;2022-07-03T05:41:58;101680.38;;;19.02;62.97
66945;BME280;53853;51.982;5.928;2022-07-03T05:44:28;101678.78;;;19.08;62.72
66945;BME280;53853;51.982;5.928;2022-07-03T05:47:00;101673.88;;;19.11;62.21
66945;BME280;53853;51.982;5.928;2022-07-03T05:49:30;101672.19;;;19.10;62.17
66945;BME280;53853;51.982;5.928;2022-07-03T05:52:00;101677.59;;;19.10;62.07
66945;BME280;53853;51.982;5.928;2022-07-03T05:54:30;101687.75;;;19.08;62.41
66945;BME280;53853;51.982;5.928;2022-07-03T05:57:00;101688.59;;;19.09;61.88
66945;BME280;53853;51.982;5.928;2022-07-03T05:59:30;101692.13;;;19.09;62.05
66945;BME280;53853;51.982;5.928;2022-07-03T06:02:02;101688.84;;;19.14;62.56
66945;BME280;53853;51.982;5.928;2022-07-03T06:04:32;101684.03;;;19.24;62.39
66945;BME280;53853;51.982;5.928;2022-07-03T06:07:03;101678.72;;;19.31;62.24
66945;BME280;53853;51.982;5.928;2022-07-03T06:09:33;101683.56;;;19.35;61.98
66945;BME280;53853;51.982;5.928;2022-07-03T06:12:03;101686.34;;;19.42;62.33
66945;BME280;53853;51.982;5.928;2022-07-03T06:14:33;101685.59;;;19.48;61.77
66945;BME280;53853;51.982;5.928;2022-07-03T06:17:05;101679.16;;;19.49;61.52
66945;BME280;53853;51.982;5.928;2022-07-03T06:19:35;101682.31;;;19.53;61.05
66945;BME280;53853;51.982;5.928;2022-07-03T06:22:05;101690.69;;;19.58;61.04
66945;BME280;53853;51.982;5.928;2022-07-03T06:24:35;101690.78;;;19.65;60.93
66945;BME280;53853;51.982;5.928;2022-07-03T06:27:05;101685.00;;;19.68;60.55
66945;BME280;53853;51.982;5.928;2022-07-03T06:29:35;101687.88;;;19.66;60.71
66945;BME280;53853;51.982;5.928;2022-07-03T06:32:08;101687.06;;;19.66;61.04
66945;BME280;53853;51.982;5.928;2022-07-03T06:34:38;101686.59;;;19.62;60.96
66945;BME280;53853;51.982;5.928;2022-07-03T06:37:09;101692.47;;;19.66;60.75
66945;BME280;53853;51.982;5.928;2022-07-03T06:39:39;101686.88;;;19.67;60.77
66945;BME280;53853;51.982;5.928;2022-07-03T06:42:09;101687.50;;;19.69;60.38
66945;BME280;53853;51.982;5.928;2022-07-03T06:44:39;101692.09;;;19.69;60.35
66945;BME280;53853;51.982;5.928;2022-07-03T06:47:11;101695.63;;;19.69;60.49
66945;BME280;53853;51.982;5.928;2022-07-03T06:49:41;101692.09;;;19.69;60.80
66945;BME280;53853;51.982;5.928;2022-07-03T06:52:11;101691.06;;;19.70;60.69
66945;BME280;53853;51.982;5.928;2022-07-03T06:54:41;101697.69;;;19.67;60.96
66945;BME280;53853;51.982;5.928;2022-07-03T06:57:11;101688.56;;;19.68;61.37
66945;BME280;53853;51.982;5.928;2022-07-03T06:59:41;101699.00;;;19.71;60.96
66945;BME280;53853;51.982;5.928;2022-07-03T07:02:14;101695.53;;;19.78;61.75
66945;BME280;53853;51.982;5.928;2022-07-03T07:04:43;101688.16;;;19.86;61.19
66945;BME280;53853;51.982;5.928;2022-07-03T07:07:14;101689.91;;;19.94;61.50
66945;BME280;53853;51.982;5.928;2022-07-03T07:09:44;101695.41;;;20.01;60.77
66945;BME280;53853;51.982;5.928;2022-07-03T07:12:15;101697.72;;;20.04;60.90
66945;BME280;53853;51.982;5.928;2022-07-03T07:14:45;101696.97;;;20.10;60.71
66945;BME280;53853;51.982;5.928;2022-07-03T07:17:17;101688.72;;;20.18;59.93
66945;BME280;53853;51.982;5.928;2022-07-03T07:19:47;101686.25;;;20.23;59.29
66945;BME280;53853;51.982;5.928;2022-07-03T07:22:17;101693.59;;;20.30;59.85
66945;BME280;53853;51.982;5.928;2022-07-03T07:24:47;101692.00;;;20.35;58.24
66945;BME280;53853;51.982;5.928;2022-07-03T07:27:17;101689.09;;;20.37;59.25
66945;BME280;53853;51.982;5.928;2022-07-03T07:29:47;101701.59;;;20.38;59.02
66945;BME280;53853;51.982;5.928;2022-07-03T07:32:19;101694.13;;;20.40;59.02
66945;BME280;53853;51.982;5.928;2022-07-03T07:34:49;101696.06;;;20.46;58.69
66945;BME280;53853;51.982;5.928;2022-07-03T07:37:19;101695.94;;;20.54;57.37
66945;BME280;53853;51.982;5.928;2022-07-03T07:39:49;101705.31;;;20.58;58.21
66945;BME280;53853;51.982;5.928;2022-07-03T07:42:19;101711.00;;;20.63;58.07
66945;BME280;53853;51.982;5.928;2022-07-03T07:44:51;101705.88;;;20.69;58.54
66945;BME280;53853;51.982;5.928;2022-07-03T07:47:23;101705.72;;;20.77;57.72
66945;BME280;53853;51.982;5.928;2022-07-03T07:49:53;101704.09;;;20.83;57.10
66945;BME280;53853;51.982;5.928;2022-07-03T07:52:23;101705.16;;;20.88;57.34
66945;BME280;53853;51.982;5.928;2022-07-03T07:54:53;101706.28;;;20.94;55.57
66945;BME280;53853;51.982;5.928;2022-07-03T07:57:23;101707.13;;;21.01;56.82
66945;BME280;53853;51.982;5.928;2022-07-03T07:59:53;101717.19;;;21.07;56.19
66945;BME280;53853;51.982;5.928;2022-07-03T08:02:25;101725.34;;;21.14;55.13
66945;BME280;53853;51.982;5.928;2022-07-03T08:05:08;101718.72;;;21.16;55.34
66945;BME280;53853;51.982;5.928;2022-07-03T08:07:50;101718.31;;;21.20;55.68
66945;BME280;53853;51.982;5.928;2022-07-03T08:10:20;101725.66;;;21.26;56.01
66945;BME280;53853;51.982;5.928;2022-07-03T08:12:50;101724.66;;;21.33;54.92
66945;BME280;53853;51.982;5.928;2022-07-03T08:15:20;101726.97;;;21.37;55.82
66945;BME280;53853;51.982;5.928;2022-07-03T08:17:53;101725.31;;;21.42;56.52
66945;BME280;53853;51.982;5.928;2022-07-03T08:20:23;101724.09;;;21.45;55.81
66945;BME280;53853;51.982;5.928;2022-07-03T08:22:53;101718.28;;;21.48;55.42
66945;BME280;53853;51.982;5.928;2022-07-03T08:25:23;101714.59;;;21.56;55.51
66945;BME280;53853;51.982;5.928;2022-07-03T08:27:53;101724.19;;;21.58;55.66
66945;BME280;53853;51.982;5.928;2022-07-03T08:30:23;101723.78;;;21.61;55.60
66945;BME280;53853;51.982;5.928;2022-07-03T08:32:58;101726.09;;;21.64;53.78
66945;BME280;53853;51.982;5.928;2022-07-03T08:35:28;101723.78;;;21.61;54.81
66945;BME280;53853;51.982;5.928;2022-07-03T08:37:58;101734.63;;;21.61;54.89
66945;BME280;53853;51.982;5.928;2022-07-03T08:40:28;101729.44;;;21.66;53.14
66945;BME280;53853;51.982;5.928;2022-07-03T08:42:59;101722.56;;;21.70;53.45
66945;BME280;53853;51.982;5.928;2022-07-03T08:45:31;101728.41;;;21.74;53.45
66945;BME280;53853;51.982;5.928;2022-07-03T08:48:06;101715.09;;;21.79;53.71
66945;BME280;53853;51.982;5.928;2022-07-03T08:50:36;101720.97;;;21.83;54.21
66945;BME280;53853;51.982;5.928;2022-07-03T08:53:07;101722.19;;;21.87;53.82
66945;BME280;53853;51.982;5.928;2022-07-03T08:55:39;101718.69;;;21.93;52.96
66945;BME280;53853;51.982;5.928;2022-07-03T08:58:11;101724.56;;;21.97;53.30
66945;BME280;53853;51.982;5.928;2022-07-03T09:00:42;101726.88;;;22.06;52.20
66945;BME280;53853;51.982;5.928;2022-07-03T09:03:15;101721.66;;;22.12;51.29
66945;BME280;53853;51.982;5.928;2022-07-03T09:05:45;101723.97;;;22.15;48.81
66945;BME280;53853;51.982;5.928;2022-07-03T09:08:16;101722.91;;;22.09;50.22
66945;BME280;53853;51.982;5.928;2022-07-03T09:10:47;101723.75;;;22.10;47.61
66945;BME280;53853;51.982;5.928;2022-07-03T09:13:17;101719.56;;;22.14;48.13
66945;BME280;53853;51.982;5.928;2022-07-03T09:15:46;101722.72;;;22.17;49.01
66945;BME280;53853;51.982;5.928;2022-07-03T09:18:36;101713.13;;;22.21;49.79
66945;BME280;53853;51.982;5.928;2022-07-03T09:21:07;101713.94;;;22.22;49.27
66945;BME280;53853;51.982;5.928;2022-07-03T09:23:39;101713.75;;;22.23;48.94
66945;BME280;53853;51.982;5.928;2022-07-03T09:26:13;101711.72;;;22.32;47.97
66945;BME280;53853;51.982;5.928;2022-07-03T09:28:48;101714.44;;;22.32;47.72
66945;BME280;53853;51.982;5.928;2022-07-03T09:31:19;101711.50;;;22.34;47.29
66945;BME280;53853;51.982;5.928;2022-07-03T09:33:55;101722.13;;;22.29;48.78
66945;BME280;53853;51.982;5.928;2022-07-03T09:36:42;101722.16;;;22.35;48.48
66945;BME280;53853;51.982;5.928;2022-07-03T09:39:23;101714.84;;;22.42;49.17
66945;BME280;53853;51.982;5.928;2022-07-03T09:41:57;101710.25;;;22.50;49.90
66945;BME280;53853;51.982;5.928;2022-07-03T09:44:32;101720.72;;;22.59;49.17
66945;BME280;53853;51.982;5.928;2022-07-03T09:47:13;101720.31;;;22.63;49.13
66945;BME280;53853;51.982;5.928;2022-07-03T09:49:51;101722.81;;;22.57;48.84
66945;BME280;53853;51.982;5.928;2022-07-03T09:52:33;101715.69;;;22.56;49.27
66945;BME280;53853;51.982;5.928;2022-07-03T09:55:14;101719.88;;;22.66;49.89
66945;BME280;53853;51.982;5.928;2022-07-03T09:57:46;101719.06;;;22.72;49.73
66945;BME280;53853;51.982;5.928;2022-07-03T10:00:28;101726.16;;;22.79;50.46
66945;BME280;53853;51.982;5.928;2022-07-03T10:02:59;101726.56;;;22.90;50.81
66945;BME280;53853;51.982;5.928;2022-07-03T10:05:34;101729.28;;;23.03;51.56
66945;BME280;53853;51.982;5.928;2022-07-03T10:08:06;101725.91;;;23.01;50.92
66945;BME280;53853;51.982;5.928;2022-07-03T10:10:39;101735.34;;;22.98;50.13
66945;BME280;53853;51.982;5.928;2022-07-03T10:13:09;101732.63;;;22.98;51.85
66945;BME280;53853;51.982;5.928;2022-07-03T10:15:40;101736.78;;;23.01;51.18
66945;BME280;53853;51.982;5.928;2022-07-03T10:18:12;101739.13;;;23.11;51.03
66945;BME280;53853;51.982;5.928;2022-07-03T10:20:47;101741.19;;;23.15;51.15
66945;BME280;53853;51.982;5.928;2022-07-03T10:23:20;101741.19;;;23.15;49.44
66945;BME280;53853;51.982;5.928;2022-07-03T10:25:51;101737.44;;;23.03;50.25
66945;BME280;53853;51.982;5.928;2022-07-03T10:28:21;101734.94;;;23.08;50.33
66945;BME280;53853;51.982;5.928;2022-07-03T10:30:51;101738.69;;;23.14;49.95
66945;BME280;53853;51.982;5.928;2022-07-03T10:33:21;101744.34;;;23.19;48.52
66945;BME280;53853;51.982;5.928;2022-07-03T10:35:55;101753.72;;;23.23;47.00
66945;BME280;53853;51.982;5.928;2022-07-03T10:38:36;101738.28;;;23.24;48.54
66945;BME280;53853;51.982;5.928;2022-07-03T10:41:12;101749.75;;;23.26;48.38
66945;BME280;53853;51.982;5.928;2022-07-03T10:43:55;101749.56;;;23.21;48.27
66945;BME280;53853;51.982;5.928;2022-07-03T10:46:38;101742.84;;;23.23;48.30
66945;BME280;53853;51.982;5.928;2022-07-03T10:49:09;101740.56;;;23.27;46.28
66945;BME280;53853;51.982;5.928;2022-07-03T10:51:55;101747.03;;;23.32;47.41
66945;BME280;53853;51.982;5.928;2022-07-03T10:54:27;101743.84;;;23.42;48.01
66945;BME280;53853;51.982;5.928;2022-07-03T10:57:09;101750.31;;;23.55;46.31
66945;BME280;53853;51.982;5.928;2022-07-03T11:00:00;101747.59;;;23.55;47.02
66945;BME280;53853;51.982;5.928;2022-07-03T11:02:34;101740.69;;;23.52;47.67
66945;BME280;53853;51.982;5.928;2022-07-03T11:08:09;101752.31;;;23.79;48.54
66945;BME280;53853;51.982;5.928;2022-07-03T11:10:40;101751.50;;;23.85;48.40
66945;BME280;53853;51.982;5.928;2022-07-03T11:13:32;101738.94;;;23.84;48.43
66945;BME280;53853;51.982;5.928;2022-07-03T11:16:02;101741.66;;;23.84;47.96
66945;BME280;53853;51.982;5.928;2022-07-03T11:18:33;101741.84;;;23.83;47.94
66945;BME280;53853;51.982;5.928;2022-07-03T11:24:30;101739.97;;;23.83;45.86
66945;BME280;53853;51.982;5.928;2022-07-03T11:27:21;101743.50;;;23.91;46.29
66945;BME280;53853;51.982;5.928;2022-07-03T11:29:56;101738.91;;;23.91;45.08
66945;BME280;53853;51.982;5.928;2022-07-03T11:32:48;101738.69;;;23.93;45.26
66945;BME280;53853;51.982;5.928;2022-07-03T11:35:49;101728.19;;;23.96;46.41
66945;BME280;53853;51.982;5.928;2022-07-03T11:38:23;101736.06;;;24.11;45.29
66945;BME280;53853;51.982;5.928;2022-07-03T11:40:59;101733.34;;;24.11;44.09
66945;BME280;53853;51.982;5.928;2022-07-03T11:43:29;101728.56;;;24.07;44.08
66945;BME280;53853;51.982;5.928;2022-07-03T11:45:59;101722.84;;;24.15;45.07
66945;BME280;53853;51.982;5.928;2022-07-03T11:48:31;101719.81;;;24.30;44.94
66945;BME280;53853;51.982;5.928;2022-07-03T11:51:02;101715.31;;;24.42;45.41
66945;BME280;53853;51.982;5.928;2022-07-03T11:53:34;101726.84;;;24.44;44.74
66945;BME280;53853;51.982;5.928;2022-07-03T11:56:08;101727.25;;;24.48;44.59
66945;BME280;53853;51.982;5.928;2022-07-03T11:58:43;101725.13;;;24.50;42.78
66945;BME280;53853;51.982;5.928;2022-07-03T12:01:29;101723.06;;;24.45;42.23
66945;BME280;53853;51.982;5.928;2022-07-03T12:04:05;101717.22;;;24.41;43.87
66945;BME280;53853;51.982;5.928;2022-07-03T12:06:37;101720.81;;;24.35;42.65
66945;BME280;53853;51.982;5.928;2022-07-03T12:09:15;101714.78;;;24.33;42.10
66945;BME280;53853;51.982;5.928;2022-07-03T12:11:57;101718.47;;;24.39;43.33
66945;BME280;53853;51.982;5.928;2022-07-03T12:14:43;101714.88;;;24.45;42.76
66945;BME280;53853;51.982;5.928;2022-07-03T12:17:15;101715.97;;;24.44;42.57
66945;BME280;53853;51.982;5.928;2022-07-03T12:19:46;101714.44;;;24.48;42.81
66945;BME280;53853;51.982;5.928;2022-07-03T12:22:27;101725.50;;;24.53;42.64
66945;BME280;53853;51.982;5.928;2022-07-03T12:24:59;101728.34;;;24.40;42.88
66945;BME280;53853;51.982;5.928;2022-07-03T12:27:33;101731.13;;;24.27;42.93
66945;BME280;53853;51.982;5.928;2022-07-03T12:30:05;101731.13;;;24.27;42.84
66945;BME280;53853;51.982;5.928;2022-07-03T12:32:37;101723.22;;;24.18;42.45
66945;BME280;53853;51.982;5.928;2022-07-03T12:35:08;101714.03;;;24.19;43.21
66945;BME280;53853;51.982;5.928;2022-07-03T12:37:39;101720.25;;;24.27;43.54
66945;BME280;53853;51.982;5.928;2022-07-03T12:40:12;101707.03;;;24.30;42.18
66945;BME280;53853;51.982;5.928;2022-07-03T12:42:46;101710.59;;;24.31;42.52
66945;BME280;53853;51.982;5.928;2022-07-03T12:45:18;101707.66;;;24.32;42.89
66945;BME280;53853;51.982;5.928;2022-07-03T12:47:57;101703.47;;;24.30;41.19
66945;BME280;53853;51.982;5.928;2022-07-03T12:50:45;101705.13;;;24.31;41.56
66945;BME280;53853;51.982;5.928;2022-07-03T12:53:28;101703.66;;;24.35;41.62
66945;BME280;53853;51.982;5.928;2022-07-03T12:56:00;101706.31;;;24.41;43.04
66945;BME280;53853;51.982;5.928;2022-07-03T12:58:35;101699.13;;;24.47;41.25
66945;BME280;53853;51.982;5.928;2022-07-03T13:01:28;101690.75;;;24.49;42.46
66945;BME280;53853;51.982;5.928;2022-07-03T13:04:00;101701.84;;;24.54;42.18
66945;BME280;53853;51.982;5.928;2022-07-03T13:06:30;101713.69;;;24.66;41.51
66945;BME280;53853;51.982;5.928;2022-07-03T13:09:02;101710.75;;;24.68;41.64
66945;BME280;53853;51.982;5.928;2022-07-03T13:11:34;101708.81;;;24.75;41.09
66945;BME280;53853;51.982;5.928;2022-07-03T13:14:10;101704.69;;;24.66;41.61
66945;BME280;53853;51.982;5.928;2022-07-03T13:16:42;101703.00;;;24.65;41.44
66945;BME280;53853;51.982;5.928;2022-07-03T13:19:14;101719.94;;;24.73;42.16
66945;BME280;53853;51.982;5.928;2022-07-03T13:21:44;101710.19;;;24.84;41.89
66945;BME280;53853;51.982;5.928;2022-07-03T13:24:16;101707.97;;;25.00;43.14
66945;BME280;53853;51.982;5.928;2022-07-03T13:26:47;101720.97;;;24.98;40.11
66945;BME280;53853;51.982;5.928;2022-07-03T13:29:20;101718.69;;;24.94;41.55
66945;BME280;53853;51.982;5.928;2022-07-03T13:31:51;101725.97;;;25.01;41.68